AAL1039 KSAN-KDFW
Flight info
| Callsign | AAL1039 |
|---|---|
| Flight time | N/A |
| Altitude | 35000 |
| Route | ZZOOO4 GBN J50 SSO J4 INK GEEKY BOOVE7 |
| Aircraft | A321/M-SDE3FGHIRWY/LB1 |
Departure
| Time | 2026-04-23 03:56 |
|---|---|
| Airport | San Diego International Airport (KSAN) |
Arrival
| Time | N/A |
|---|---|
| Airport | Dallas Fort Worth International Airport (KDFW) |
| Time | Latitude | Longitude | Altitude | Speed | Heading |
|---|---|---|---|---|---|
| 2026-04-23 03:35 | 32.73347 | -117.20055 | 31 ft | 0 kts | 263° |
| 2026-04-23 03:44 | 32.73347 | -117.20051 | 26 ft | 2 kts | 263° |
| 2026-04-23 03:44 | 32.73349 | -117.20030 | 30 ft | 3 kts | 274° |
| 2026-04-23 03:44 | 32.73345 | -117.20007 | 30 ft | 3 kts | 298° |
| 2026-04-23 03:44 | 32.73334 | -117.19991 | 27 ft | 3 kts | 342° |
| 2026-04-23 03:45 | 32.73323 | -117.19989 | 28 ft | 1 kts | 11° |
| 2026-04-23 03:45 | 32.73319 | -117.19990 | 30 ft | 1 kts | 11° |
| 2026-04-23 03:49 | 32.73368 | -117.19978 | 27 ft | 14 kts | 12° |
| 2026-04-23 03:49 | 32.73462 | -117.19948 | 26 ft | 13 kts | 31° |
| 2026-04-23 03:50 | 32.73468 | -117.19853 | 27 ft | 12 kts | 105° |
| 2026-04-23 03:50 | 32.73441 | -117.19744 | 26 ft | 16 kts | 106° |
| 2026-04-23 03:50 | 32.73410 | -117.19613 | 26 ft | 17 kts | 106° |
| 2026-04-23 03:50 | 32.73377 | -117.19480 | 27 ft | 17 kts | 106° |
| 2026-04-23 03:51 | 32.73342 | -117.19336 | 27 ft | 20 kts | 107° |
| 2026-04-23 03:51 | 32.73304 | -117.19175 | 24 ft | 19 kts | 108° |
| 2026-04-23 03:51 | 32.73269 | -117.19032 | 26 ft | 18 kts | 105° |
| 2026-04-23 03:51 | 32.73234 | -117.18887 | 27 ft | 18 kts | 106° |
| 2026-04-23 03:52 | 32.73199 | -117.18744 | 25 ft | 18 kts | 106° |
| 2026-04-23 03:52 | 32.73164 | -117.18597 | 26 ft | 20 kts | 105° |
| 2026-04-23 03:52 | 32.73124 | -117.18433 | 26 ft | 21 kts | 107° |
| 2026-04-23 03:52 | 32.73082 | -117.18262 | 27 ft | 22 kts | 106° |
| 2026-04-23 03:53 | 32.73037 | -117.18077 | 22 ft | 24 kts | 106° |
| 2026-04-23 03:53 | 32.72991 | -117.17885 | 20 ft | 23 kts | 106° |
| 2026-04-23 03:53 | 32.72952 | -117.17742 | 20 ft | 12 kts | 107° |
| 2026-04-23 03:53 | 32.72951 | -117.17695 | 19 ft | 0 kts | 75° |
| 2026-04-23 03:54 | 32.72951 | -117.17694 | 19 ft | 1 kts | 75° |
| 2026-04-23 03:54 | 32.72969 | -117.17634 | 21 ft | 11 kts | 62° |
| 2026-04-23 03:54 | 32.73027 | -117.17631 | 23 ft | 10 kts | 310° |
| 2026-04-23 03:55 | 32.73043 | -117.17681 | 21 ft | 0 kts | 286° |
| 2026-04-23 03:55 | 32.73075 | -117.17811 | 24 ft | 50 kts | 286° |
| 2026-04-23 03:56 | 32.73238 | -117.18479 | 26 ft | 115 kts | 286° |
| 2026-04-23 03:56 | 32.73513 | -117.19595 | 86 ft | 159 kts | 287° |
| 2026-04-23 03:56 | 32.73833 | -117.20823 | 764 ft | 153 kts | 286° |
| 2026-04-23 03:56 | 32.74143 | -117.22046 | 1392 ft | 156 kts | 287° |
| 2026-04-23 03:57 | 32.74453 | -117.23328 | 1900 ft | 170 kts | 285° |
| 2026-04-23 03:57 | 32.74793 | -117.24764 | 2130 ft | 192 kts | 288° |
| 2026-04-23 03:57 | 32.75177 | -117.26388 | 2309 ft | 217 kts | 288° |
| 2026-04-23 03:57 | 32.75596 | -117.28153 | 2915 ft | 224 kts | 288° |
| 2026-04-23 03:58 | 32.75946 | -117.29999 | 3420 ft | 241 kts | 273° |
| 2026-04-23 03:58 | 32.75567 | -117.31970 | 3937 ft | 258 kts | 242° |
| 2026-04-23 03:58 | 32.74328 | -117.33569 | 4681 ft | 267 kts | 214° |
| 2026-04-23 03:58 | 32.72590 | -117.34330 | 5423 ft | 275 kts | 194° |
| 2026-04-23 03:59 | 32.70675 | -117.34631 | 6139 ft | 282 kts | 181° |
| 2026-04-23 03:59 | 32.68748 | -117.34091 | 6782 ft | 292 kts | 154° |
| 2026-04-23 03:59 | 32.67124 | -117.32617 | 7421 ft | 299 kts | 130° |
| 2026-04-23 03:59 | 32.66109 | -117.30457 | 8041 ft | 304 kts | 105° |
| 2026-04-23 04:00 | 32.65886 | -117.27960 | 8658 ft | 308 kts | 86° |
| 2026-04-23 04:00 | 32.65953 | -117.25403 | 9297 ft | 313 kts | 86° |
| 2026-04-23 04:00 | 32.66030 | -117.22798 | 9927 ft | 318 kts | 86° |
| 2026-04-23 04:00 | 32.66109 | -117.20130 | 10269 ft | 334 kts | 86° |
| 2026-04-23 04:01 | 32.66190 | -117.17274 | 10426 ft | 357 kts | 86° |
| 2026-04-23 04:01 | 32.66270 | -117.14252 | 10729 ft | 369 kts | 86° |
| 2026-04-23 04:01 | 32.66341 | -117.11217 | 11491 ft | 368 kts | 86° |
| 2026-04-23 04:01 | 32.66407 | -117.08211 | 12120 ft | 371 kts | 86° |
| 2026-04-23 04:02 | 32.66474 | -117.05134 | 12737 ft | 374 kts | 87° |
| 2026-04-23 04:02 | 32.66542 | -117.02037 | 13369 ft | 377 kts | 86° |
| 2026-04-23 04:02 | 32.66611 | -116.98909 | 13981 ft | 380 kts | 86° |
| 2026-04-23 04:02 | 32.66681 | -116.95748 | 14520 ft | 384 kts | 87° |
| 2026-04-23 04:03 | 32.66748 | -116.92559 | 15025 ft | 388 kts | 87° |
| 2026-04-23 04:03 | 32.66814 | -116.89342 | 15575 ft | 392 kts | 87° |
| 2026-04-23 04:03 | 32.66883 | -116.86099 | 16104 ft | 395 kts | 87° |
| 2026-04-23 04:03 | 32.66955 | -116.82815 | 16620 ft | 399 kts | 88° |
| 2026-04-23 04:04 | 32.67026 | -116.79498 | 17153 ft | 403 kts | 88° |
| 2026-04-23 04:04 | 32.67096 | -116.76161 | 17699 ft | 407 kts | 88° |
| 2026-04-23 04:04 | 32.67137 | -116.72832 | 18220 ft | 411 kts | 90° |
| 2026-04-23 04:04 | 32.67114 | -116.69425 | 18698 ft | 414 kts | 91° |
| 2026-04-23 04:05 | 32.67051 | -116.65996 | 19121 ft | 418 kts | 91° |
| 2026-04-23 04:05 | 32.66968 | -116.62538 | 19579 ft | 421 kts | 91° |
| 2026-04-23 04:05 | 32.66880 | -116.59051 | 20031 ft | 425 kts | 92° |
| 2026-04-23 04:05 | 32.66800 | -116.55530 | 20458 ft | 428 kts | 91° |
| 2026-04-23 04:06 | 32.66729 | -116.51978 | 20917 ft | 432 kts | 91° |